createdAt,value
2019-02-23T00:01:36.254Z,9.98
2019-02-23T00:04:06.875Z,6.00
2019-02-23T00:06:37.648Z,6.75
2019-02-23T00:09:07.978Z,8.13
2019-02-23T00:11:38.331Z,6.90
2019-02-23T00:14:08.718Z,6.92
2019-02-23T00:16:39.078Z,4.87
2019-02-23T00:19:09.428Z,7.72
2019-02-23T00:21:39.821Z,7.33
2019-02-23T00:24:10.169Z,11.97
2019-02-23T00:26:40.526Z,6.55
2019-02-23T00:29:11.163Z,8.33
2019-02-23T00:31:41.493Z,7.75
2019-02-23T00:34:12.212Z,7.15
2019-02-23T00:36:42.902Z,6.95
2019-02-23T00:39:13.256Z,5.75
2019-02-23T00:41:43.838Z,4.80
2019-02-23T00:44:14.729Z,8.03
2019-02-23T00:46:45.333Z,9.68
2019-02-23T00:49:15.672Z,7.15
2019-02-23T00:51:46.072Z,7.37
2019-02-23T00:54:16.740Z,11.25
2019-02-23T00:56:47.101Z,5.12
2019-02-23T00:59:17.748Z,7.75
2019-02-23T01:01:48.079Z,10.55
2019-02-23T01:04:18.438Z,8.55
2019-02-23T01:06:49.403Z,8.40
2019-02-23T01:09:20.382Z,6.62
2019-02-23T01:11:50.772Z,6.65
2019-02-23T01:14:21.355Z,9.83
2019-02-23T01:16:51.694Z,8.58
2019-02-23T01:19:22.395Z,7.17
2019-02-23T01:21:53.405Z,5.25
2019-02-23T01:24:23.758Z,10.58
2019-02-23T01:26:54.112Z,6.67
2019-02-23T01:29:24.721Z,5.20
2019-02-23T01:31:55.424Z,8.15
2019-02-23T01:34:25.760Z,7.85
2019-02-23T01:36:56.775Z,10.58
2019-02-23T01:39:27.404Z,7.33
2019-02-23T01:41:57.734Z,11.70
2019-02-23T01:44:28.132Z,18.20
2019-02-23T01:46:58.799Z,12.88
2019-02-23T01:49:29.152Z,5.60
2019-02-23T01:51:59.708Z,11.12
2019-02-23T01:54:30.040Z,8.03
2019-02-23T01:57:00.953Z,7.90
2019-02-23T01:59:31.323Z,8.75
2019-02-23T02:02:01.686Z,8.88
2019-02-23T02:04:32.278Z,7.80
2019-02-23T02:07:03.208Z,4.72
2019-02-23T02:09:33.570Z,8.15
2019-02-23T02:12:04.167Z,8.40
2019-02-23T02:14:34.549Z,8.05
2019-02-23T02:17:05.196Z,8.40
2019-02-23T02:19:35.562Z,8.90
2019-02-23T02:22:06.554Z,10.68
2019-02-23T02:24:36.892Z,12.55
2019-02-23T02:27:07.230Z,9.15
2019-02-23T02:29:37.681Z,11.08
2019-02-23T02:32:08.415Z,10.03
2019-02-23T02:34:38.753Z,9.15
2019-02-23T02:37:09.208Z,8.55
2019-02-23T02:39:39.891Z,12.55
2019-02-23T02:42:10.820Z,10.93
2019-02-23T02:44:41.463Z,13.38
2019-02-23T02:47:11.896Z,12.30
2019-02-23T02:49:42.229Z,16.60
2019-02-23T02:52:12.618Z,8.45
2019-02-23T02:54:43.240Z,8.50
2019-02-23T02:57:13.816Z,11.03
2019-02-23T02:59:44.193Z,8.70
2019-02-23T03:02:14.666Z,12.88
2019-02-23T03:04:45.284Z,10.58
2019-02-23T03:07:15.923Z,12.85
2019-02-23T03:09:46.541Z,12.65
2019-02-23T03:12:17.174Z,9.15
2019-02-23T03:14:47.627Z,11.95
2019-02-23T03:17:18.374Z,7.53
2019-02-23T03:19:49.224Z,10.78
2019-02-23T03:22:19.637Z,18.07
2019-02-23T03:24:49.996Z,13.58
2019-02-23T03:27:20.943Z,14.58
2019-02-23T03:29:51.688Z,9.90
2019-02-23T03:32:22.313Z,16.87
2019-02-23T03:34:52.649Z,11.55
2019-02-23T03:37:23.013Z,17.45
2019-02-23T03:39:53.624Z,10.88
2019-02-23T03:42:23.966Z,12.60
2019-02-23T03:44:55.218Z,11.15
2019-02-23T03:47:25.846Z,12.13
2019-02-23T03:49:56.186Z,22.25
2019-02-23T03:52:26.584Z,11.30
2019-02-23T03:54:57.194Z,10.65
2019-02-23T03:57:27.532Z,12.37
2019-02-23T03:59:58.239Z,9.18
2019-02-23T04:02:28.565Z,13.25
2019-02-23T04:04:58.917Z,9.78
2019-02-23T04:07:29.620Z,8.70
2019-02-23T04:10:00.392Z,10.63
2019-02-23T04:12:31.755Z,14.65
2019-02-23T04:15:02.146Z,8.48
2019-02-23T04:17:32.498Z,9.93
2019-02-23T04:20:03.108Z,12.68
2019-02-23T04:22:33.506Z,12.90
2019-02-23T04:25:04.727Z,13.90
2019-02-23T04:27:35.656Z,12.70
2019-02-23T04:30:08.610Z,15.78
2019-02-23T04:32:38.972Z,13.80
2019-02-23T04:35:09.632Z,14.73
2019-02-23T04:37:40.033Z,15.00
2019-02-23T04:40:10.737Z,13.98
2019-02-23T04:42:41.094Z,15.58
2019-02-23T04:45:11.967Z,15.93
2019-02-23T04:47:42.330Z,17.10
2019-02-23T04:50:12.923Z,14.55
2019-02-23T04:52:43.368Z,12.43
2019-02-23T04:55:14.028Z,11.33
2019-02-23T04:57:44.376Z,16.27
2019-02-23T05:00:15.706Z,12.20
2019-02-23T05:02:46.370Z,10.95
2019-02-23T05:05:16.719Z,18.65
2019-02-23T05:07:47.364Z,14.35
2019-02-23T05:10:18.357Z,16.77
2019-02-23T05:12:48.961Z,14.73
2019-02-23T05:15:19.630Z,14.53
2019-02-23T05:17:50.368Z,13.13
2019-02-23T05:20:21.266Z,13.60
2019-02-23T05:22:52.809Z,16.05
2019-02-23T05:25:23.403Z,14.83
2019-02-23T05:27:53.901Z,21.97
2019-02-23T05:30:24.324Z,15.58
2019-02-23T05:32:54.606Z,18.35
2019-02-23T05:35:25.532Z,14.18
2019-02-23T05:37:55.946Z,14.50
2019-02-23T05:40:26.310Z,17.02
2019-02-23T05:43:00.966Z,15.63
2019-02-23T05:45:29.384Z,16.42
2019-02-23T05:47:59.854Z,23.15
2019-02-23T05:50:30.605Z,14.83
2019-02-23T05:53:01.002Z,13.70
2019-02-23T05:55:31.364Z,11.25
2019-02-23T05:58:01.732Z,17.05
2019-02-23T06:00:32.115Z,17.62
2019-02-23T06:03:02.554Z,13.48
2019-02-23T06:05:33.177Z,17.07
2019-02-23T06:08:03.611Z,13.38
2019-02-23T06:10:33.976Z,16.25
2019-02-23T06:13:04.583Z,18.15
2019-02-23T06:15:35.535Z,15.40
2019-02-23T06:18:06.145Z,16.40
2019-02-23T06:20:36.768Z,15.23
2019-02-23T06:23:07.204Z,20.48
2019-02-23T06:25:37.644Z,15.00
2019-02-23T06:28:08.587Z,16.27
2019-02-23T06:30:39.224Z,19.12
2019-02-23T06:33:09.589Z,16.37
2019-02-23T06:35:40.183Z,18.05
2019-02-23T06:38:10.854Z,15.65
2019-02-23T06:40:41.486Z,12.53
2019-02-23T06:43:12.094Z,21.73
2019-02-23T06:45:42.905Z,20.30
2019-02-23T06:48:13.813Z,17.85
2019-02-23T06:50:44.529Z,20.27
2019-02-23T06:53:15.046Z,17.07
2019-02-23T06:55:45.383Z,19.95
2019-02-23T06:58:16.039Z,15.10
2019-02-23T07:00:46.743Z,19.98
2019-02-23T07:03:17.083Z,17.50
2019-02-23T07:05:47.816Z,24.27
2019-02-23T07:08:18.497Z,20.32
2019-02-23T07:10:48.840Z,19.95
2019-02-23T07:13:19.459Z,16.45
2019-02-23T07:15:49.875Z,21.20
2019-02-23T07:18:20.238Z,16.52
2019-02-23T07:20:50.604Z,20.17
2019-02-23T07:23:20.998Z,27.32
2019-02-23T07:25:51.664Z,16.62
2019-02-23T07:28:22.558Z,16.12
2019-02-23T07:30:52.929Z,16.45
2019-02-23T07:33:32.358Z,15.30
2019-02-23T07:35:55.327Z,17.35
2019-02-23T07:38:26.096Z,19.77
2019-02-23T07:40:56.433Z,18.95
2019-02-23T07:43:27.158Z,21.95
2019-02-23T07:45:57.544Z,15.85
2019-02-23T07:48:27.897Z,23.70
2019-02-23T07:50:58.517Z,18.02
2019-02-23T07:53:29.175Z,18.75
2019-02-23T07:55:59.898Z,15.43
2019-02-23T07:58:30.747Z,16.97
2019-02-23T08:01:01.383Z,15.80
2019-02-23T08:03:31.726Z,22.55
2019-02-23T08:06:02.497Z,20.32
2019-02-23T08:08:33.178Z,16.17
2019-02-23T08:11:03.909Z,19.98
2019-02-23T08:13:34.239Z,20.35
2019-02-23T08:16:04.607Z,17.92
2019-02-23T08:18:34.945Z,18.23
2019-02-23T08:21:05.301Z,16.73
2019-02-23T08:23:35.682Z,16.20
2019-02-23T08:26:06.016Z,23.05
2019-02-23T08:28:36.376Z,26.33
2019-02-23T08:31:07.044Z,15.72
2019-02-23T08:33:37.370Z,20.48
2019-02-23T08:36:07.736Z,12.35
2019-02-23T08:38:38.256Z,19.45
2019-02-23T08:41:08.586Z,17.20
2019-02-23T08:43:39.234Z,17.32
2019-02-23T08:46:09.616Z,14.68
2019-02-23T08:48:40.246Z,18.57
2019-02-23T08:51:10.874Z,12.78
2019-02-23T08:53:41.557Z,17.50
2019-02-23T08:56:11.946Z,16.45
2019-02-23T08:58:42.608Z,10.13
2019-02-23T09:01:13.246Z,17.87
2019-02-23T09:03:45.135Z,25.08
2019-02-23T09:06:15.851Z,16.50
2019-02-23T09:08:47.080Z,16.40
2019-02-23T09:11:17.381Z,18.15
2019-02-23T09:13:47.998Z,18.27
2019-02-23T09:16:18.743Z,18.00
2019-02-23T09:18:49.094Z,14.20
2019-02-23T09:21:19.438Z,12.68
2019-02-23T09:23:49.810Z,13.85
2019-02-23T09:26:20.477Z,14.18
2019-02-23T09:28:51.102Z,15.23
2019-02-23T09:31:21.750Z,15.50
2019-02-23T09:33:52.358Z,15.10
2019-02-23T09:36:22.948Z,19.73
2019-02-23T09:38:54.952Z,13.93
2019-02-23T09:41:25.368Z,11.83
2019-02-23T09:43:55.693Z,13.70
2019-02-23T09:46:26.041Z,12.25
2019-02-23T09:48:56.521Z,11.60
2019-02-23T09:51:26.948Z,10.78
2019-02-23T09:53:57.317Z,10.30
2019-02-23T09:56:27.671Z,10.18
2019-02-23T09:58:58.026Z,19.92
2019-02-23T10:01:28.366Z,12.10
2019-02-23T10:03:58.692Z,13.62
2019-02-23T10:06:29.038Z,12.47
2019-02-23T10:08:59.426Z,10.08
2019-02-23T10:11:29.893Z,16.42
2019-02-23T10:14:00.753Z,15.40
2019-02-23T10:16:33.226Z,11.80
2019-02-23T10:19:03.859Z,11.65
2019-02-23T10:21:34.535Z,12.82
2019-02-23T10:24:04.962Z,14.70
2019-02-23T10:26:35.291Z,11.95
2019-02-23T10:29:06.164Z,17.00
2019-02-23T10:31:36.547Z,14.75
2019-02-23T10:34:06.897Z,13.53
2019-02-23T10:36:37.500Z,9.33
2019-02-23T10:39:08.386Z,11.10
2019-02-23T10:41:39.243Z,13.18
2019-02-23T10:44:09.870Z,13.20
2019-02-23T10:46:40.203Z,9.78
2019-02-23T10:49:10.796Z,8.48
2019-02-23T10:51:41.436Z,11.05
2019-02-23T10:54:12.345Z,15.18
2019-02-23T10:56:42.696Z,10.30
2019-02-23T10:59:13.021Z,8.08
2019-02-23T11:01:44.098Z,11.38
2019-02-23T11:04:14.763Z,13.72
2019-02-23T11:06:45.388Z,10.45
2019-02-23T11:09:20.637Z,11.20
2019-02-23T11:11:50.982Z,9.75
2019-02-23T11:14:21.326Z,9.98
2019-02-23T11:16:51.711Z,7.80
2019-02-23T11:19:22.327Z,10.30
2019-02-23T11:21:52.962Z,9.53
2019-02-23T11:24:23.734Z,14.28
2019-02-23T11:26:54.587Z,8.00
2019-02-23T11:29:24.935Z,11.43
2019-02-23T11:31:55.572Z,9.08
2019-02-23T11:34:25.891Z,9.25
2019-02-23T11:36:56.498Z,11.63
2019-02-23T11:39:27.283Z,9.68
2019-02-23T11:41:57.870Z,9.43
2019-02-23T11:44:28.204Z,10.05
2019-02-23T11:47:00.296Z,15.00
2019-02-23T11:49:30.765Z,32.13
2019-02-23T11:52:01.116Z,13.95
2019-02-23T11:54:31.724Z,14.78
2019-02-23T11:57:02.324Z,12.90
2019-02-23T11:59:33.052Z,11.95
2019-02-23T12:02:03.426Z,10.15
2019-02-23T12:04:34.076Z,9.78
2019-02-23T12:07:04.661Z,9.40
2019-02-23T12:09:35.036Z,12.15
2019-02-23T12:12:05.650Z,12.25
2019-02-23T12:14:36.267Z,11.45
2019-02-23T12:17:06.660Z,10.32
2019-02-23T12:19:36.982Z,9.50
2019-02-23T12:22:12.230Z,7.47
2019-02-23T12:24:39.675Z,9.35
2019-02-23T12:27:10.295Z,13.22
2019-02-23T12:29:40.939Z,8.35
2019-02-23T12:32:11.973Z,12.43
2019-02-23T12:34:42.592Z,8.20
2019-02-23T12:37:13.234Z,9.35
2019-02-23T12:39:43.993Z,9.33
2019-02-23T12:42:14.711Z,9.43
2019-02-23T12:44:45.057Z,12.82
2019-02-23T12:47:15.799Z,10.23
2019-02-23T12:49:46.413Z,16.25
2019-02-23T12:52:16.762Z,14.63
2019-02-23T12:54:47.184Z,10.43
2019-02-23T12:57:17.523Z,15.10
2019-02-23T12:59:48.226Z,8.98
2019-02-23T13:02:18.589Z,9.45
2019-02-23T13:04:49.222Z,8.93
2019-02-23T13:07:19.548Z,9.20
2019-02-23T13:09:50.279Z,7.42
2019-02-23T13:12:30.893Z,7.35
2019-02-23T13:15:12.367Z,9.43
2019-02-23T13:18:25.779Z,8.90
2019-02-23T13:21:21.142Z,6.28
2019-02-23T13:24:27.745Z,10.63
2019-02-23T13:27:06.905Z,12.37
2019-02-23T13:29:56.758Z,8.25
2019-02-23T13:32:55.837Z,7.92
2019-02-23T13:35:54.257Z,11.00
2019-02-23T13:38:54.157Z,5.40
2019-02-23T13:41:35.075Z,7.78
2019-02-23T13:44:42.259Z,8.33
2019-02-23T13:47:51.659Z,6.92
2019-02-23T13:50:58.274Z,6.92
2019-02-23T13:53:54.521Z,10.63
2019-02-23T13:56:41.252Z,8.73
2019-02-23T13:59:40.191Z,5.08
2019-02-23T14:02:40.982Z,9.63
2019-02-23T14:05:40.676Z,7.12
2019-02-23T14:08:30.027Z,6.97
2019-02-23T14:11:19.681Z,7.12
2019-02-23T14:14:12.389Z,10.75
2019-02-23T14:16:53.368Z,5.90
2019-02-23T14:20:04.119Z,9.85
2019-02-23T14:23:12.327Z,9.50
2019-02-23T14:26:09.822Z,10.98
2019-02-23T14:29:04.484Z,8.63
2019-02-23T14:31:39.734Z,6.40
2019-02-23T14:34:37.114Z,6.00
2019-02-23T14:37:34.644Z,5.15
2019-02-23T14:40:24.432Z,5.50
2019-02-23T14:43:18.066Z,8.05
2019-02-23T14:46:38.334Z,6.62
2019-02-23T14:49:43.243Z,8.35
2019-02-23T14:52:46.104Z,9.25
2019-02-23T14:55:40.528Z,9.60
2019-02-23T14:58:40.929Z,8.98
2019-02-23T15:01:49.135Z,10.85
2019-02-23T15:04:24.665Z,10.05
2019-02-23T15:07:35.567Z,13.40
2019-02-23T15:10:44.854Z,8.65
2019-02-23T15:13:51.092Z,10.13
2019-02-23T15:16:50.768Z,8.65
2019-02-23T15:20:05.667Z,26.82
2019-02-23T15:23:16.876Z,14.03
2019-02-23T15:26:28.513Z,12.07
2019-02-23T15:29:39.269Z,14.58
2019-02-23T15:32:42.970Z,11.88
2019-02-23T15:35:46.651Z,17.82
2019-02-23T15:38:59.297Z,10.55
2019-02-23T15:41:40.331Z,10.30
2019-02-23T15:44:21.756Z,9.48
2019-02-23T15:47:00.203Z,12.75
2019-02-23T15:49:33.765Z,8.55
2019-02-23T15:52:04.723Z,12.93
2019-02-23T15:54:35.598Z,16.10
2019-02-23T15:57:05.986Z,15.93
2019-02-23T15:59:36.385Z,14.95
2019-02-23T16:02:07.009Z,12.68
2019-02-23T16:04:37.686Z,10.38
2019-02-23T16:07:08.030Z,14.25
2019-02-23T16:09:38.645Z,10.93
2019-02-23T16:12:09.036Z,15.93
2019-02-23T16:14:39.666Z,11.70
2019-02-23T16:17:10.259Z,10.32
2019-02-23T16:19:40.965Z,29.10
2019-02-23T16:22:11.314Z,16.37
2019-02-23T16:24:42.026Z,14.40
2019-02-23T16:27:12.684Z,14.63
2019-02-23T16:29:43.028Z,10.43
2019-02-23T16:32:13.380Z,13.93
2019-02-23T16:34:44.291Z,13.10
2019-02-23T16:37:14.630Z,21.02
2019-02-23T16:39:44.999Z,13.45
2019-02-23T16:42:15.388Z,18.45
2019-02-23T16:44:45.743Z,13.18
2019-02-23T16:47:16.345Z,11.88
2019-02-23T16:49:46.835Z,12.95
2019-02-23T16:52:17.181Z,15.23
2019-02-23T16:54:47.558Z,12.68
2019-02-23T16:57:18.232Z,23.62
2019-02-23T16:59:48.578Z,13.70
2019-02-23T17:02:19.233Z,15.90
2019-02-23T17:04:53.473Z,14.80
2019-02-23T17:07:21.913Z,16.20
2019-02-23T17:09:52.559Z,12.58
2019-02-23T17:12:23.251Z,17.55
2019-02-23T17:14:53.583Z,16.50
2019-02-23T17:17:24.176Z,14.73
2019-02-23T17:19:55.246Z,19.42
2019-02-23T17:22:25.889Z,18.15
2019-02-23T17:24:56.480Z,17.65
2019-02-23T17:27:35.811Z,14.28
2019-02-23T17:29:59.294Z,18.02
2019-02-23T17:32:29.626Z,22.22
2019-02-23T17:35:00.553Z,25.70
2019-02-23T17:37:30.926Z,22.55
2019-02-23T17:40:01.581Z,24.35
2019-02-23T17:42:32.232Z,18.52
2019-02-23T17:45:02.880Z,40.10
2019-02-23T17:47:33.837Z,31.95
2019-02-23T17:50:05.217Z,28.12
2019-02-23T17:52:36.141Z,31.33
2019-02-23T17:55:08.291Z,27.60
2019-02-23T17:57:38.699Z,28.70
2019-02-23T18:00:14.577Z,28.50
2019-02-23T18:02:45.202Z,68.20
2019-02-23T18:05:15.574Z,79.35
2019-02-23T18:07:46.001Z,95.00
2019-02-23T18:10:16.434Z,92.85
2019-02-23T18:12:46.809Z,74.72
2019-02-23T18:15:17.134Z,61.83
2019-02-23T18:17:47.795Z,52.80
2019-02-23T18:20:18.117Z,45.12
2019-02-23T18:22:48.468Z,41.35
2019-02-23T18:25:19.378Z,30.10
2019-02-23T18:27:49.732Z,27.98
2019-02-23T18:30:20.629Z,28.32
2019-02-23T18:32:52.335Z,34.98
2019-02-23T18:35:22.680Z,27.77
2019-02-23T18:37:53.277Z,33.05
2019-02-23T18:40:23.987Z,29.55
2019-02-23T18:42:54.724Z,43.10
2019-02-23T18:45:25.570Z,33.67
2019-02-23T18:47:56.263Z,29.57
2019-02-23T18:50:26.856Z,30.52
2019-02-23T18:52:57.198Z,27.48
2019-02-23T18:55:27.608Z,27.67
2019-02-23T18:57:58.725Z,28.83
2019-02-23T19:00:29.331Z,28.07
2019-02-23T19:02:59.992Z,36.30
2019-02-23T19:05:30.601Z,32.63
2019-02-23T19:08:00.946Z,34.67
2019-02-23T19:10:31.341Z,30.08
2019-02-23T19:13:01.959Z,33.70
2019-02-23T19:15:32.343Z,28.02
2019-02-23T19:18:02.712Z,28.07
2019-02-23T19:20:33.204Z,34.05
2019-02-23T19:23:04.375Z,32.38
2019-02-23T19:25:35.382Z,30.25
2019-02-23T19:28:06.165Z,29.77
2019-02-23T19:30:36.736Z,38.35
2019-02-23T19:33:07.366Z,32.30
2019-02-23T19:35:37.734Z,37.58
2019-02-23T19:38:08.350Z,40.67
2019-02-23T19:40:39.312Z,56.95
2019-02-23T19:43:09.650Z,46.00
2019-02-23T19:45:40.282Z,48.23
2019-02-23T19:48:10.747Z,47.58
2019-02-23T19:50:46.545Z,39.40
2019-02-23T19:53:17.210Z,35.52
2019-02-23T19:55:47.573Z,37.90
2019-02-23T19:58:18.209Z,30.02
2019-02-23T20:00:48.971Z,39.75
2019-02-23T20:03:19.587Z,41.88
2019-02-23T20:05:50.769Z,39.08
2019-02-23T20:08:21.381Z,32.42
2019-02-23T20:10:52.035Z,44.27
2019-02-23T20:13:22.648Z,43.28
2019-02-23T20:15:53.389Z,32.95
2019-02-23T20:18:24.013Z,42.08
2019-02-23T20:20:54.769Z,34.90
2019-02-23T20:23:25.164Z,31.73
2019-02-23T20:25:55.779Z,37.90
2019-02-23T20:28:26.139Z,34.98
2019-02-23T20:30:56.832Z,38.65
2019-02-23T20:33:27.876Z,32.20
2019-02-23T20:35:58.239Z,39.48
2019-02-23T20:38:28.872Z,44.18
2019-02-23T20:40:59.497Z,32.95
2019-02-23T20:43:30.086Z,38.30
2019-02-23T20:46:00.493Z,52.38
2019-02-23T20:48:30.830Z,43.20
2019-02-23T20:51:01.163Z,56.48
2019-02-23T20:53:31.811Z,53.05
2019-02-23T20:56:02.782Z,53.52
2019-02-23T20:58:33.401Z,41.77
2019-02-23T21:01:04.136Z,43.73
2019-02-23T21:03:34.766Z,55.75
2019-02-23T21:06:05.660Z,50.30
2019-02-23T21:08:36.767Z,50.88
2019-02-23T21:11:07.137Z,50.33
2019-02-23T21:13:37.502Z,45.40
2019-02-23T21:16:08.022Z,52.73
2019-02-23T21:18:38.355Z,54.90
2019-02-23T21:21:08.721Z,50.43
2019-02-23T21:23:39.406Z,51.70
2019-02-23T21:26:10.314Z,54.00
2019-02-23T21:28:40.921Z,51.48
2019-02-23T21:31:11.438Z,53.83
2019-02-23T21:33:41.772Z,50.80
2019-02-23T21:36:12.417Z,51.37
2019-02-23T21:38:43.378Z,49.00
2019-02-23T21:41:13.900Z,53.68
2019-02-23T21:43:44.904Z,46.18
2019-02-23T21:46:15.654Z,47.80
2019-02-23T21:48:46.567Z,45.20
2019-02-23T21:51:17.600Z,44.33
2019-02-23T21:53:48.222Z,43.87
2019-02-23T21:56:19.415Z,44.40
2019-02-23T21:58:49.803Z,38.33
2019-02-23T22:01:20.463Z,39.05
2019-02-23T22:03:51.470Z,44.75
2019-02-23T22:06:21.850Z,46.35
2019-02-23T22:08:52.214Z,37.95
2019-02-23T22:11:22.836Z,31.23
2019-02-23T22:13:53.487Z,26.27
2019-02-23T22:16:24.223Z,33.67
2019-02-23T22:18:54.843Z,29.63
2019-02-23T22:21:25.209Z,28.57
2019-02-23T22:23:55.846Z,28.35
2019-02-23T22:26:26.471Z,34.65
2019-02-23T22:28:57.111Z,36.30
2019-02-23T22:31:28.291Z,40.23
2019-02-23T22:33:58.801Z,39.95
2019-02-23T22:36:29.173Z,35.20
2019-02-23T22:38:59.832Z,35.17
2019-02-23T22:41:30.462Z,38.05
2019-02-23T22:44:00.825Z,43.05
2019-02-23T22:46:31.760Z,43.33
2019-02-23T22:49:02.661Z,46.33
2019-02-23T22:51:33.299Z,47.48
2019-02-23T22:54:03.966Z,44.65
2019-02-23T22:56:34.327Z,35.65
2019-02-23T22:59:04.947Z,37.75
2019-02-23T23:01:36.138Z,32.45
2019-02-23T23:04:06.931Z,33.02
2019-02-23T23:06:37.276Z,29.32
2019-02-23T23:09:09.611Z,33.58
2019-02-23T23:11:40.253Z,34.98
2019-02-23T23:14:10.891Z,41.63
2019-02-23T23:16:41.348Z,37.13
2019-02-23T23:19:12.579Z,50.15
2019-02-23T23:21:43.190Z,44.38
2019-02-23T23:24:13.574Z,44.08
2019-02-23T23:26:44.171Z,36.98
2019-02-23T23:29:17.510Z,42.53
2019-02-23T23:31:48.260Z,33.85
2019-02-23T23:34:18.862Z,38.85
2019-02-23T23:36:49.895Z,39.48
2019-02-23T23:39:20.295Z,40.38
2019-02-23T23:41:50.912Z,41.35
2019-02-23T23:44:21.246Z,40.92
2019-02-23T23:46:52.302Z,33.80
2019-02-23T23:49:22.964Z,36.03
2019-02-23T23:51:53.324Z,33.40
2019-02-23T23:54:24.236Z,35.25
2019-02-23T23:56:54.605Z,35.48
2019-02-23T23:59:24.969Z,40.80
